createdAt,value
2019-02-05T00:00:37.370Z,3.00
2019-02-05T00:03:08.242Z,2.80
2019-02-05T00:05:37.382Z,3.40
2019-02-05T00:08:06.080Z,2.80
2019-02-05T00:10:34.927Z,2.87
2019-02-05T00:13:03.825Z,2.60
2019-02-05T00:15:33.107Z,2.60
2019-02-05T00:18:01.946Z,2.53
2019-02-05T00:20:30.732Z,2.80
2019-02-05T00:22:59.310Z,3.00
2019-02-05T00:25:28.036Z,2.83
2019-02-05T00:27:56.742Z,3.17
2019-02-05T00:30:25.926Z,2.77
2019-02-05T00:32:54.665Z,2.83
2019-02-05T00:35:23.739Z,3.30
2019-02-05T00:37:52.860Z,2.83
2019-02-05T00:40:23.112Z,3.07
2019-02-05T00:42:51.739Z,2.80
2019-02-05T00:45:21.150Z,2.87
2019-02-05T00:47:49.949Z,3.03
2019-02-05T00:50:19.610Z,2.90
2019-02-05T00:52:48.399Z,3.40
2019-02-05T00:55:19.218Z,3.20
2019-02-05T00:57:48.350Z,2.93
2019-02-05T01:00:25.936Z,3.20
2019-02-05T01:02:55.237Z,2.80
2019-02-05T01:05:24.254Z,2.73
2019-02-05T01:07:53.396Z,3.00
2019-02-05T01:10:23.243Z,3.73
2019-02-05T01:12:52.011Z,3.10
2019-02-05T01:15:22.777Z,3.50
2019-02-05T01:17:51.906Z,3.40
2019-02-05T01:20:21.736Z,3.23
2019-02-05T01:22:51.001Z,3.03
2019-02-05T01:25:20.556Z,3.40
2019-02-05T01:27:49.639Z,4.47
2019-02-05T01:30:20.773Z,2.60
2019-02-05T01:32:49.382Z,2.83
2019-02-05T01:35:18.249Z,3.27
2019-02-05T01:37:46.925Z,4.10
2019-02-05T01:40:18.746Z,3.40
2019-02-05T01:42:47.430Z,3.10
2019-02-05T01:45:39.710Z,3.47
2019-02-05T01:48:08.543Z,3.43
2019-02-05T01:50:37.228Z,2.73
2019-02-05T01:53:06.583Z,3.93
2019-02-05T01:55:35.725Z,3.27
2019-02-05T01:58:04.902Z,3.50
2019-02-05T02:00:35.299Z,3.50
2019-02-05T02:03:04.616Z,3.30
2019-02-05T02:05:33.719Z,3.97
2019-02-05T02:08:02.584Z,3.30
2019-02-05T02:10:31.906Z,3.30
2019-02-05T02:13:00.770Z,4.20
2019-02-05T02:15:29.805Z,3.57
2019-02-05T02:17:58.594Z,4.00
2019-02-05T02:20:27.479Z,4.10
2019-02-05T02:22:56.836Z,4.30
2019-02-05T02:25:25.875Z,4.40
2019-02-05T02:27:55.086Z,4.20
2019-02-05T02:30:26.776Z,3.60
2019-02-05T02:32:55.566Z,4.00
2019-02-05T02:35:24.756Z,3.63
2019-02-05T02:37:53.697Z,4.13
2019-02-05T02:40:23.079Z,4.53
2019-02-05T02:42:52.073Z,4.03
2019-02-05T02:45:20.867Z,4.20
2019-02-05T02:47:50.074Z,4.17
2019-02-05T02:50:20.902Z,4.57
2019-02-05T02:52:50.104Z,4.20
2019-02-05T02:55:19.403Z,4.40
2019-02-05T02:57:48.677Z,4.47
2019-02-05T03:00:23.688Z,3.73
2019-02-05T03:02:52.827Z,4.97
2019-02-05T03:05:23.278Z,4.50
2019-02-05T03:07:52.443Z,4.57
2019-02-05T03:10:23.651Z,4.10
2019-02-05T03:12:53.207Z,4.93
2019-02-05T03:15:23.894Z,4.50
2019-02-05T03:17:52.569Z,4.83
2019-02-05T03:20:21.768Z,4.73
2019-02-05T03:22:51.422Z,5.83
2019-02-05T03:25:23.173Z,5.00
2019-02-05T03:27:53.846Z,4.83
2019-02-05T03:30:24.661Z,4.37
2019-02-05T03:32:55.457Z,5.00
2019-02-05T03:35:24.668Z,5.30
2019-02-05T03:37:53.512Z,4.10
2019-02-05T03:40:31.469Z,4.10
2019-02-05T03:43:00.306Z,4.87
2019-02-05T03:45:31.752Z,4.67
2019-02-05T03:48:02.722Z,5.00
2019-02-05T03:50:34.078Z,4.60
2019-02-05T03:53:08.834Z,4.40
2019-02-05T03:55:47.010Z,4.33
2019-02-05T03:58:30.784Z,5.10
2019-02-05T04:01:05.429Z,5.80
2019-02-05T04:03:53.776Z,4.77
2019-02-05T04:06:50.923Z,4.63
2019-02-05T04:09:31.318Z,4.60
2019-02-05T04:12:12.176Z,5.60
2019-02-05T04:14:46.846Z,6.60
2019-02-05T04:17:21.752Z,5.77
2019-02-05T04:20:11.488Z,5.20
2019-02-05T04:22:58.346Z,5.27
2019-02-05T04:25:51.147Z,6.20
2019-02-05T04:28:31.831Z,5.30
2019-02-05T04:31:09.916Z,5.60
2019-02-05T04:34:04.405Z,5.37
2019-02-05T04:36:57.269Z,5.70
2019-02-05T04:39:36.796Z,6.30
2019-02-05T04:42:14.163Z,6.50
2019-02-05T04:45:01.108Z,6.13
2019-02-05T04:47:51.122Z,5.90
2019-02-05T04:50:28.883Z,6.70
2019-02-05T04:53:02.496Z,5.80
2019-02-05T04:55:45.539Z,6.70
2019-02-05T04:58:38.931Z,6.07
2019-02-05T05:01:28.543Z,6.33
2019-02-05T05:04:14.845Z,6.60
2019-02-05T05:07:07.827Z,6.63
2019-02-05T05:09:42.353Z,5.97
2019-02-05T05:12:11.399Z,6.30
2019-02-05T05:14:41.139Z,6.20
2019-02-05T05:17:09.751Z,7.57
2019-02-05T05:19:38.485Z,6.00
2019-02-05T05:22:07.575Z,7.30
2019-02-05T05:24:37.006Z,6.10
2019-02-05T05:27:06.187Z,7.50
2019-02-05T05:29:35.308Z,6.73
2019-02-05T05:32:05.308Z,7.43
2019-02-05T05:34:35.703Z,6.40
2019-02-05T05:37:03.249Z,7.57
2019-02-05T05:39:31.950Z,6.50
2019-02-05T05:42:00.776Z,6.73
2019-02-05T05:44:29.362Z,6.53
2019-02-05T05:47:01.000Z,7.53
2019-02-05T05:49:29.693Z,6.70
2019-02-05T05:52:00.162Z,6.53
2019-02-05T05:54:28.779Z,7.13
2019-02-05T05:56:57.485Z,7.40
2019-02-05T05:59:26.184Z,6.33
2019-02-05T06:02:00.959Z,6.53
2019-02-05T06:04:30.394Z,6.63
2019-02-05T06:06:59.006Z,6.77
2019-02-05T06:09:27.701Z,6.10
2019-02-05T06:11:56.362Z,6.40
2019-02-05T06:14:25.152Z,6.00
2019-02-05T06:16:53.992Z,6.57
2019-02-05T06:19:23.239Z,6.90
2019-02-05T06:21:51.971Z,6.87
2019-02-05T06:24:20.654Z,7.03
2019-02-05T06:26:49.451Z,7.10
2019-02-05T06:29:18.619Z,7.47
2019-02-05T06:31:47.527Z,6.70
2019-02-05T06:34:16.329Z,6.87
2019-02-05T06:36:45.644Z,7.80
2019-02-05T06:39:14.321Z,6.47
2019-02-05T06:41:43.230Z,6.90
2019-02-05T06:44:11.838Z,6.80
2019-02-05T06:46:40.517Z,6.90
2019-02-05T06:49:09.283Z,6.70
2019-02-05T06:51:38.170Z,7.80
2019-02-05T06:54:06.908Z,6.90
2019-02-05T06:56:35.652Z,7.23
2019-02-05T06:59:04.444Z,7.00
2019-02-05T07:01:33.319Z,6.43
2019-02-05T07:04:02.061Z,7.73
2019-02-05T07:06:30.757Z,7.33
2019-02-05T07:08:59.511Z,7.40
2019-02-05T07:11:28.152Z,8.30
2019-02-05T07:13:58.225Z,8.50
2019-02-05T07:16:27.471Z,7.23
2019-02-05T07:18:56.061Z,7.17
2019-02-05T07:21:24.739Z,7.17
2019-02-05T07:23:53.523Z,6.90
2019-02-05T07:26:22.617Z,6.60
2019-02-05T07:28:58.407Z,7.27
2019-02-05T07:31:21.931Z,7.80
2019-02-05T07:33:50.582Z,7.10
2019-02-05T07:36:19.691Z,7.47
2019-02-05T07:38:48.393Z,7.67
2019-02-05T07:41:17.106Z,7.60
2019-02-05T07:43:46.537Z,8.30
2019-02-05T07:46:15.372Z,7.40
2019-02-05T07:48:44.082Z,7.87
2019-02-05T07:51:13.249Z,8.00
2019-02-05T07:53:42.006Z,7.57
2019-02-05T07:56:13.003Z,8.30
2019-02-05T07:58:41.817Z,7.47
2019-02-05T08:01:11.552Z,7.20
2019-02-05T08:03:40.458Z,8.60
2019-02-05T08:06:09.304Z,8.00
2019-02-05T08:08:38.042Z,8.37
2019-02-05T08:11:07.083Z,8.67
2019-02-05T08:13:36.223Z,8.67
2019-02-05T08:16:05.349Z,8.40
2019-02-05T08:18:34.158Z,8.93
2019-02-05T08:21:03.359Z,8.30
2019-02-05T08:23:32.549Z,8.47
2019-02-05T08:26:01.237Z,9.77
2019-02-05T08:28:40.375Z,9.80
2019-02-05T08:31:00.654Z,8.57
2019-02-05T08:33:29.439Z,9.23
2019-02-05T08:35:58.238Z,9.47
2019-02-05T08:38:27.362Z,9.00
2019-02-05T08:40:56.047Z,9.30
2019-02-05T08:43:24.641Z,10.97
2019-02-05T08:45:56.607Z,9.70
2019-02-05T08:48:23.900Z,11.10
2019-02-05T08:50:52.839Z,9.90
2019-02-05T08:53:21.496Z,11.10
2019-02-05T08:55:50.816Z,9.80
2019-02-05T08:58:30.297Z,11.23
2019-02-05T09:00:50.129Z,10.00
2019-02-05T09:03:18.973Z,11.20
2019-02-05T09:05:47.759Z,9.20
2019-02-05T09:08:16.593Z,9.90
2019-02-05T09:10:45.982Z,10.63
2019-02-05T09:13:15.042Z,9.63
2019-02-05T09:15:43.898Z,11.70
2019-02-05T09:18:12.729Z,9.33
2019-02-05T09:20:41.655Z,10.60
2019-02-05T09:23:10.705Z,9.57
2019-02-05T09:25:39.460Z,10.23
2019-02-05T09:28:08.285Z,10.23
2019-02-05T09:30:37.334Z,10.80
2019-02-05T09:33:14.559Z,11.20
2019-02-05T09:35:43.443Z,10.70
2019-02-05T09:38:12.373Z,9.83
2019-02-05T09:40:41.120Z,8.67
2019-02-05T09:43:11.212Z,9.30
2019-02-05T09:45:40.021Z,9.63
2019-02-05T09:48:08.751Z,10.00
2019-02-05T09:50:44.562Z,9.30
2019-02-05T09:53:07.986Z,9.80
2019-02-05T09:55:36.951Z,10.13
2019-02-05T09:58:05.663Z,9.50
2019-02-05T10:00:41.083Z,8.80
2019-02-05T10:03:09.927Z,10.17
2019-02-05T10:05:38.695Z,10.90
2019-02-05T10:08:07.645Z,10.27
2019-02-05T10:10:36.388Z,10.23
2019-02-05T10:13:05.837Z,9.93
2019-02-05T10:15:36.808Z,10.43
2019-02-05T10:18:07.756Z,10.70
2019-02-05T10:20:36.595Z,10.53
2019-02-05T10:23:06.467Z,10.10
2019-02-05T10:25:35.537Z,10.30
2019-02-05T10:28:04.490Z,9.93
2019-02-05T10:30:41.532Z,10.10
2019-02-05T10:33:10.581Z,9.60
2019-02-05T10:35:39.358Z,9.67
2019-02-05T10:38:08.245Z,10.30
2019-02-05T10:40:37.187Z,10.20
2019-02-05T10:43:06.462Z,9.90
2019-02-05T10:45:36.364Z,11.57
2019-02-05T10:48:07.061Z,10.10
2019-02-05T10:50:35.808Z,9.50
2019-02-05T10:53:04.748Z,11.10
2019-02-05T10:55:33.523Z,10.73
2019-02-05T10:58:02.833Z,10.07
2019-02-05T11:00:32.757Z,11.23
2019-02-05T11:03:06.740Z,11.40
2019-02-05T11:05:35.748Z,10.27
2019-02-05T11:08:05.022Z,9.67
2019-02-05T11:10:33.787Z,10.90
2019-02-05T11:13:02.436Z,11.20
2019-02-05T11:15:32.898Z,9.90
2019-02-05T11:18:03.835Z,10.73
2019-02-05T11:20:32.594Z,10.77
2019-02-05T11:23:01.862Z,11.23
2019-02-05T11:25:30.812Z,11.33
2019-02-05T11:27:59.597Z,11.90
2019-02-05T11:30:37.091Z,10.97
2019-02-05T11:33:06.088Z,10.63
2019-02-05T11:35:35.226Z,10.10
2019-02-05T11:38:05.120Z,11.30
2019-02-05T11:40:38.733Z,11.30
2019-02-05T11:43:07.617Z,10.60
2019-02-05T11:45:36.403Z,10.37
2019-02-05T11:48:11.425Z,10.47
2019-02-05T11:50:40.040Z,10.30
2019-02-05T11:53:09.192Z,11.63
2019-02-05T11:55:38.010Z,10.80
2019-02-05T11:58:06.744Z,10.90
2019-02-05T12:00:49.198Z,9.80
2019-02-05T12:03:18.350Z,11.30
2019-02-05T12:05:47.132Z,10.70
2019-02-05T12:08:18.504Z,11.43
2019-02-05T12:10:47.094Z,10.43
2019-02-05T12:13:15.891Z,11.20
2019-02-05T12:15:44.614Z,11.23
2019-02-05T12:18:13.834Z,10.50
2019-02-05T12:20:43.690Z,11.40
2019-02-05T12:23:12.447Z,11.63
2019-02-05T12:25:41.260Z,10.10
2019-02-05T12:28:10.029Z,11.57
2019-02-05T12:30:45.386Z,9.57
2019-02-05T12:33:12.899Z,9.87
2019-02-05T12:35:41.729Z,10.90
2019-02-05T12:38:10.787Z,10.20
2019-02-05T12:40:39.401Z,10.40
2019-02-05T12:43:08.269Z,10.70
2019-02-05T12:45:38.743Z,10.17
2019-02-05T12:48:07.977Z,10.33
2019-02-05T12:50:39.044Z,11.30
2019-02-05T12:53:07.991Z,9.87
2019-02-05T12:55:37.040Z,10.93
2019-02-05T12:58:06.442Z,10.43
2019-02-05T13:00:56.007Z,9.83
2019-02-05T13:03:14.509Z,9.80
2019-02-05T13:05:44.169Z,9.50
2019-02-05T13:08:13.492Z,10.23
2019-02-05T13:10:47.614Z,8.67
2019-02-05T13:13:18.315Z,9.30
2019-02-05T13:15:47.100Z,8.60
2019-02-05T13:18:15.922Z,9.40
2019-02-05T13:20:44.873Z,10.07
2019-02-05T13:23:14.754Z,8.30
2019-02-05T13:25:43.533Z,8.90
2019-02-05T13:28:12.583Z,9.50
2019-02-05T13:30:41.416Z,9.07
2019-02-05T13:33:11.254Z,9.10
2019-02-05T13:35:40.443Z,9.67
2019-02-05T13:38:09.193Z,10.47
2019-02-05T13:40:38.136Z,9.13
2019-02-05T13:43:07.596Z,8.67
2019-02-05T13:45:38.581Z,9.23
2019-02-05T13:48:07.843Z,10.60
2019-02-05T13:50:37.337Z,9.47
2019-02-05T13:53:06.688Z,9.03
2019-02-05T13:55:38.332Z,9.77
2019-02-05T13:58:07.343Z,10.50
2019-02-05T14:00:44.883Z,10.13
2019-02-05T14:03:13.807Z,9.30
2019-02-05T14:05:42.623Z,12.20
2019-02-05T14:08:11.490Z,9.57
2019-02-05T14:10:42.064Z,10.63
2019-02-05T14:13:11.116Z,9.80
2019-02-05T14:15:42.519Z,9.77
2019-02-05T14:18:11.972Z,10.40
2019-02-05T14:20:41.252Z,9.70
2019-02-05T14:23:10.130Z,9.00
2019-02-05T14:25:38.973Z,9.83
2019-02-05T14:28:08.490Z,9.30
2019-02-05T14:30:40.495Z,10.20
2019-02-05T14:33:09.249Z,8.93
2019-02-05T14:35:38.234Z,9.17
2019-02-05T14:38:08.013Z,10.37
2019-02-05T14:40:36.878Z,10.70
2019-02-05T14:43:06.667Z,11.17
2019-02-05T14:45:35.956Z,9.40
2019-02-05T14:48:05.982Z,9.77
2019-02-05T14:50:44.446Z,9.33
2019-02-05T14:53:13.870Z,9.90
2019-02-05T14:55:42.496Z,9.90
2019-02-05T14:58:12.260Z,9.73
2019-02-05T15:00:41.209Z,8.83
2019-02-05T15:03:13.967Z,9.60
2019-02-05T15:05:43.407Z,10.60
2019-02-05T15:08:13.381Z,9.67
2019-02-05T15:10:42.175Z,9.60
2019-02-05T15:13:11.087Z,10.63
2019-02-05T15:15:39.912Z,9.43
2019-02-05T15:18:10.018Z,10.00
2019-02-05T15:20:41.162Z,10.47
2019-02-05T15:23:10.595Z,9.77
2019-02-05T15:25:39.654Z,10.40
2019-02-05T15:28:08.733Z,10.10
2019-02-05T15:30:39.951Z,9.20
2019-02-05T15:33:18.210Z,9.70
2019-02-05T15:35:48.797Z,10.97
2019-02-05T15:38:17.571Z,11.03
2019-02-05T15:40:46.927Z,12.03
2019-02-05T15:43:15.757Z,11.20
2019-02-05T15:45:44.547Z,11.63
2019-02-05T15:48:13.489Z,11.27
2019-02-05T15:50:42.321Z,12.87
2019-02-05T15:53:11.311Z,12.53
2019-02-05T15:55:41.005Z,12.57
2019-02-05T15:58:10.219Z,11.87
2019-02-05T16:00:39.021Z,12.00
2019-02-05T16:03:08.499Z,11.07
2019-02-05T16:05:37.909Z,11.60
2019-02-05T16:08:06.961Z,11.83
2019-02-05T16:10:35.716Z,11.00
2019-02-05T16:13:04.913Z,12.00
2019-02-05T16:15:33.589Z,11.37
2019-02-05T16:18:02.847Z,12.00
2019-02-05T16:20:31.622Z,11.83
2019-02-05T16:23:00.627Z,11.00
2019-02-05T16:25:29.532Z,12.17
2019-02-05T16:27:58.627Z,11.17
2019-02-05T16:30:33.929Z,10.33
2019-02-05T16:33:02.813Z,9.60
2019-02-05T16:35:32.220Z,11.27
2019-02-05T16:38:00.999Z,10.60
2019-02-05T16:40:32.453Z,11.27
2019-02-05T16:43:01.279Z,11.87
2019-02-05T16:45:31.309Z,12.30
2019-02-05T16:48:00.596Z,12.90
2019-02-05T16:50:35.435Z,13.20
2019-02-05T16:53:07.111Z,13.97
2019-02-05T16:55:35.964Z,12.60
2019-02-05T16:58:05.730Z,13.60
2019-02-05T17:00:38.159Z,13.90
2019-02-05T17:03:07.448Z,15.60
2019-02-05T17:05:41.414Z,14.40
2019-02-05T17:08:10.547Z,16.70
2019-02-05T17:10:39.288Z,15.13
2019-02-05T17:13:08.229Z,16.70
2019-02-05T17:15:37.108Z,15.50
2019-02-05T17:18:06.877Z,16.40
2019-02-05T17:20:36.060Z,14.37
2019-02-05T17:23:05.432Z,14.57
2019-02-05T17:25:36.031Z,16.53
2019-02-05T17:28:06.538Z,16.77
2019-02-05T17:30:39.833Z,15.77
2019-02-05T17:33:08.687Z,15.80
2019-02-05T17:35:37.704Z,15.97
2019-02-05T17:38:09.258Z,15.90
2019-02-05T17:40:38.075Z,15.93
2019-02-05T17:43:07.548Z,15.27
2019-02-05T17:45:38.894Z,16.50
2019-02-05T17:48:10.343Z,17.33
2019-02-05T17:50:39.462Z,17.47
2019-02-05T17:53:08.327Z,15.87
2019-02-05T17:55:37.099Z,17.00
2019-02-05T17:58:06.308Z,16.43
2019-02-05T18:00:37.025Z,19.40
2019-02-05T18:03:06.343Z,17.57
2019-02-05T18:05:35.494Z,15.20
2019-02-05T18:08:06.111Z,17.43
2019-02-05T18:10:34.856Z,16.53
2019-02-05T18:13:04.073Z,12.80
2019-02-05T18:15:38.264Z,12.97
2019-02-05T18:18:08.118Z,14.20
2019-02-05T18:20:37.378Z,14.10
2019-02-05T18:23:06.300Z,13.33
2019-02-05T18:25:34.952Z,13.00
2019-02-05T18:28:04.546Z,13.87
2019-02-05T18:30:35.756Z,13.50
2019-02-05T18:33:05.780Z,12.73
2019-02-05T18:35:34.774Z,12.83
2019-02-05T18:38:06.290Z,13.00
2019-02-05T18:40:35.021Z,12.37
2019-02-05T18:43:03.777Z,12.27
2019-02-05T18:45:32.609Z,12.47
2019-02-05T18:48:01.437Z,11.13
2019-02-05T18:50:30.591Z,11.80
2019-02-05T18:52:59.340Z,11.30
2019-02-05T18:55:36.254Z,12.40
2019-02-05T18:58:09.513Z,12.03
2019-02-05T19:00:42.370Z,12.07
2019-02-05T19:03:15.447Z,11.60
2019-02-05T19:05:42.156Z,10.97
2019-02-05T19:08:11.733Z,11.40
2019-02-05T19:10:40.997Z,12.40
2019-02-05T19:13:09.741Z,11.83
2019-02-05T19:15:40.302Z,11.40
2019-02-05T19:18:10.595Z,11.80
2019-02-05T19:20:39.560Z,11.30
2019-02-05T19:23:09.850Z,11.37
2019-02-05T19:25:40.496Z,10.70
2019-02-05T19:28:09.983Z,11.03
2019-02-05T19:30:40.363Z,12.47
2019-02-05T19:33:09.255Z,11.80
2019-02-05T19:35:37.994Z,13.17
2019-02-05T19:38:06.867Z,11.40
2019-02-05T19:40:35.670Z,10.97
2019-02-05T19:43:04.750Z,11.33
2019-02-05T19:45:51.719Z,12.10
2019-02-05T19:48:28.017Z,11.47
2019-02-05T19:50:57.075Z,12.03
2019-02-05T19:53:26.789Z,12.53
2019-02-05T19:55:55.769Z,11.10
2019-02-05T19:58:26.144Z,11.60
2019-02-05T20:00:55.400Z,11.67
2019-02-05T20:03:24.181Z,11.07
2019-02-05T20:05:53.204Z,11.30
2019-02-05T20:08:21.920Z,13.03
2019-02-05T20:10:50.699Z,11.60
2019-02-05T20:13:19.480Z,13.03
2019-02-05T20:15:51.053Z,13.17
2019-02-05T20:18:18.789Z,14.57
2019-02-05T20:20:47.435Z,14.10
2019-02-05T20:23:16.446Z,15.33
2019-02-05T20:25:45.159Z,15.87
2019-02-05T20:28:14.039Z,16.60
2019-02-05T20:30:43.010Z,17.03
2019-02-05T20:33:12.135Z,16.17
2019-02-05T20:35:40.912Z,16.00
2019-02-05T20:38:09.990Z,16.23
2019-02-05T20:40:38.647Z,16.57
2019-02-05T20:43:07.387Z,16.10
2019-02-05T20:45:36.118Z,15.60
2019-02-05T20:48:06.290Z,17.03
2019-02-05T20:50:35.247Z,16.07
2019-02-05T20:53:13.420Z,16.17
2019-02-05T20:55:35.021Z,16.57
2019-02-05T20:58:04.174Z,17.10
2019-02-05T21:00:33.780Z,16.63
2019-02-05T21:03:02.636Z,15.00
2019-02-05T21:05:31.555Z,16.40
2019-02-05T21:08:01.178Z,16.13
2019-02-05T21:10:31.056Z,17.13
2019-02-05T21:13:01.059Z,19.27
2019-02-05T21:15:30.095Z,17.20
2019-02-05T21:17:59.397Z,18.47
2019-02-05T21:20:34.115Z,18.90
2019-02-05T21:23:03.123Z,21.20
2019-02-05T21:25:33.972Z,19.67
2019-02-05T21:28:02.743Z,16.87
2019-02-05T21:30:31.717Z,16.93
2019-02-05T21:33:00.475Z,17.10
2019-02-05T21:35:29.374Z,17.13
2019-02-05T21:37:58.569Z,16.03
2019-02-05T21:40:31.338Z,19.47
2019-02-05T21:42:58.813Z,20.20
2019-02-05T21:45:31.802Z,19.37
2019-02-05T21:48:00.767Z,17.47
2019-02-05T21:50:29.816Z,17.87
2019-02-05T21:52:59.180Z,16.40
2019-02-05T21:55:28.654Z,17.23
2019-02-05T21:57:57.704Z,17.47
2019-02-05T22:00:36.416Z,16.57
2019-02-05T22:03:06.767Z,16.83
2019-02-05T22:05:35.864Z,15.93
2019-02-05T22:08:08.566Z,14.77
2019-02-05T22:10:36.190Z,14.53
2019-02-05T22:13:07.301Z,14.47
2019-02-05T22:15:36.427Z,14.27
2019-02-05T22:18:05.192Z,12.33
2019-02-05T22:20:35.227Z,13.13
2019-02-05T22:23:04.120Z,13.77
2019-02-05T22:25:33.737Z,12.67
2019-02-05T22:28:02.616Z,13.47
2019-02-05T22:30:34.679Z,13.57
2019-02-05T22:33:05.494Z,13.40
2019-02-05T22:35:34.873Z,14.47
2019-02-05T22:38:04.520Z,12.43
2019-02-05T22:40:33.418Z,12.90
2019-02-05T22:43:03.223Z,13.40
2019-02-05T22:45:32.491Z,13.50
2019-02-05T22:48:01.410Z,13.50
2019-02-05T22:50:38.286Z,13.37
2019-02-05T22:53:12.319Z,14.40
2019-02-05T22:55:41.419Z,12.47
2019-02-05T22:58:10.568Z,12.10
2019-02-05T23:00:53.160Z,13.23
2019-02-05T23:03:28.128Z,12.00
2019-02-05T23:06:33.745Z,14.17
2019-02-05T23:09:11.784Z,12.60
2019-02-05T23:11:52.962Z,14.30
2019-02-05T23:14:22.331Z,12.63
2019-02-05T23:16:51.521Z,12.30
2019-02-05T23:19:20.962Z,12.97
2019-02-05T23:21:49.952Z,12.93
2019-02-05T23:24:18.739Z,12.00
2019-02-05T23:26:49.342Z,11.60
2019-02-05T23:29:18.585Z,12.80
2019-02-05T23:31:47.662Z,13.57
2019-02-05T23:34:17.162Z,13.43
2019-02-05T23:36:46.154Z,12.50
2019-02-05T23:39:14.939Z,12.83
2019-02-05T23:41:43.735Z,12.00
2019-02-05T23:44:12.687Z,13.27
2019-02-05T23:46:42.016Z,12.87
2019-02-05T23:49:10.885Z,11.30
2019-02-05T23:51:39.665Z,12.73
2019-02-05T23:54:08.792Z,11.77
2019-02-05T23:56:37.785Z,12.53
2019-02-05T23:59:06.553Z,11.40
